Warning: Javascript must be enabled to use all the features on this page!


Page Loading - Please Wait...

Click to hideNews Bulletins

Streamflow Measurements for the Nation


USGS 02110760 AIW @ MYRTLEWOOD GOLF COURSE @ MYRTLE BEACH, SC


Horry County, South Carolina
Hydrologic Unit Code 03040207
Latitude  33°44'26", Longitude  78°52'01" NAD27
Gage datum 12.07 feet above NGVD29
Output formats
HTML table with channel data
HTML table without channel data
Tab-separated data with channel data
Tab-separated data without channel data
Graph of data
Reselect output format
Meas.
Number
  Date       Time Time
Datum
Measurement
Used?
  Who Measuring
Agency
Stream
flow
(ft3/s)
Gage
Height
(ft)
GH
Change
(ft)
Meas.
Duration
(hr)
Meas.
Rated
  Control Flow
Adjust.
Code
 
2572009-10-06 16:59EDTYesJWEUSGS317014.76 GoodClearNONE
2562009-10-06 16:44EDTYesJWEUSGS324014.81 GoodClearNONE
2552009-10-06 16:30EDTYesJWEUSGS319014.82 GoodClearNONE
2542009-10-06 16:01EDTYesJWEUSGS310014.81 GoodClearNONE
2532009-10-06 15:30EDTYesJWEUSGS283014.80 GoodClearNONE
2522009-10-06 14:47EDTYesJWEUSGS197014.85 GoodClearNONE
2512009-10-06 10:29EDTYesJWEUSGS-332014.62 GoodClearNONE
2502009-10-06 10:02EDTYesJWEUSGS-354014.31 GoodClearNONE
2492009-10-06 09:47EDTYesJWEUSGS-357014.24 GoodClearNONE
2482009-10-06 09:31EDTYesJWEUSGS-332014.20 GoodClearNONE
2472009-10-06 09:16EDTYesJWEUSGS-305014.14 GoodClearNONE
2462009-10-06 09:00EDTYesJWEUSGS-299014.11 GoodClearNONE
2452009-07-08 15:01EDTYesJWEUSGS326014.69 GoodClearNONE
2442009-07-08 14:48EDTYesJWEUSGS310014.69 GoodClearNONE
2432009-07-08 14:17EDTYesJWEUSGS289014.72 GoodClearNONE
2422009-07-08 13:47EDTYesJWEUSGS243014.76 GoodClearNONE
2412009-07-08 13:30EDTYesJWEUSGS219014.79 GoodClearNONE
2402009-07-08 12:59EDTYesJWEUSGS155014.88 FairClearNONE
2392009-07-08 12:30EDTYesJWEUSGS64115.02 PoorClearNONE
2382009-07-08 12:00EDTYesJWEUSGS-39815.15 PoorClearNONE
2362009-07-08 11:20EDTYesJWEUSGS-140015.12 GoodClearNONE
2352009-07-08 10:15EDTYesJWEUSGS-310014.62 GoodClearNONE
2342009-07-08 09:57EDTYesJWEUSGS-324014.56 GoodClearNONE
2332009-07-08 09:33EDTYesJWEUSGS-313014.53 GoodClearNONE
2322009-07-08 09:18EDTYesJWEUSGS-299014.52 GoodClearNONE
2312009-07-08 09:03EDTYesJWEUSGS-281014.52 GoodClearNONE
2302009-07-08 08:47EDTYesJWEUSGS-262014.53 GoodClearNONE
2292009-07-08 08:32EDTYesJWEUSGS-191014.50 FairClearNONE
2282009-07-08 08:17EDTYesJWEUSGS-134014.46 FairClearNONE
2272009-07-08 08:04EDTYesJWEUSGS-59214.43 FairClearNONE
2262009-07-08 07:30EDTYesJWEUSGS125014.29 GoodClearNONE
2252009-05-06 12:41EDTYesJWEUSGS274014.05 GoodUnspecifedNONE
2242009-05-06 12:27EDTYesJWEUSGS297014.11 GoodUnspecifedNONE
2232009-05-06 12:12EDTYesJWEUSGS290014.15 GoodUnspecifedNONE
2222009-05-06 11:58EDTYesJWEUSGS309014.21 GoodUnspecifedNONE
2212009-05-06 11:43EDTYesJWEUSGS294014.20 GoodUnspecifedNONE
2202009-05-06 11:31EDTYesJWEUSGS275014.21 GoodUnspecifedNONE
2192009-05-06 11:12EDTYesJWEUSGS272014.23 GoodUnspecifedNONE
2182009-05-06 11:02EDTYesJWEUSGS255014.25 GoodUnspecifedNONE
2172009-02-11 14:59ESTYesJWEUSGS327014.27 GoodClearNONE
2162009-02-11 14:44ESTYesJWEUSGS307014.27 GoodClearNONE
2152009-02-11 14:29ESTYesJWEUSGS311014.30 GoodClearNONE
2142009-02-11 14:15ESTYesJWEUSGS288014.31 GoodClearNONE
2132009-02-11 14:00ESTYesJWEUSGS267014.33 GoodClearNONE
2122009-02-11 13:45ESTYesJWEUSGS273014.35 GoodClearNONE
2112009-02-11 10:16ESTYesJWEUSGS-214013.81 GoodClearNONE
2102009-02-11 09:45ESTYesJWEUSGS-289013.33 GoodClearNONE
2092009-02-11 09:31ESTYesJWEUSGS-304013.20 GoodClearNONE
2082009-02-11 09:15ESTYesJWEUSGS-295013.12 GoodClearNONE
2072009-02-11 09:00ESTYesJWEUSGS-290013.04 GoodClearNONE
2062009-02-11 08:45ESTYesJWEUSGS-278012.99 GoodClearNONE
2052009-02-11 08:30ESTYesJWEUSGS-248012.94 GoodClearNONE
2042009-02-11 08:18ESTYesJWEUSGS-230012.90 GoodClearNONE
2032008-10-14 14:48EDTYesPADUSGS396014.80 FairClearNONE
2022008-10-14 14:34EDTYesPADUSGS406014.84 FairClearNONE
2012008-10-14 14:18EDTYesPADUSGS395014.86 FairClearNONE
2002008-10-14 14:05EDTYesPADUSGS366014.88 FairClearNONE
1992008-10-14 13:51EDTYesPADUSGS360014.89 FairClearNONE
1982008-10-14 13:38EDTYesPADUSGS348014.90 FairClearNONE
1972008-07-16 12:45EDTYesPAD/JJPUSGS301014.55 PoorClearNONE
1962008-07-16 12:40EDTYesPAD/JJPUSGS301014.55 PoorClearNONE
1952008-07-16 11:56EDTYesPAD/JJPUSGS251014.60 PoorClearNONE
1942008-07-16 11:44EDTYesPAD/JJPUSGS241014.62 PoorClearNONE
1932008-07-16 11:29EDTYesPAD/JJPUSGS240014.65 PoorClearNONE
1922008-04-25 12:45EDTYesPADUSGS-217013.81 GoodClearNONE
1912008-04-25 12:30EDTYesPADUSGS-228013.77 GoodClearNONE
1902008-04-25 12:00EDTYesPADUSGS-217013.72 GoodClearNONE
1892008-04-25 11:45EDTYesPADUSGS-186013.70 GoodClearNONE
1882008-04-25 11:30EDTYesPADUSGS-155013.67 GoodClearNONE
1872007-12-11 08:58ESTYesPADUSGS-225012.59 FairClearNONE
1862007-12-11 08:44ESTYesPADUSGS-241012.40 FairClearNONE
1852007-12-11 08:30ESTYesPADUSGS-247012.27 FairClearNONE
1842007-12-11 08:16ESTYesPADUSGS-248012.18 FairClearNONE
1832007-12-11 08:01ESTYesPADUSGS-255012.11 FairClearNONE
1822007-10-04 12:06EDTYesPADUSGS115013.46 FairClearNONE
1812007-10-04 12:01EDTYesPADUSGS126013.47 FairClearNONE
1802007-10-04 11:16EDTYesPADUSGS187013.75 FairClearNONE
1792007-10-04 10:00EDTYesPADUSGS239014.26 FairClearNONE
1782007-10-04 09:30EDTYesPADUSGS290014.41 FairClearNONE
1772007-10-04 09:16EDTYesPADUSGS304014.45 FairClearNONE
1762007-10-04 09:06EDTYesPADUSGS294014.48 FairClearNONE
1742007-08-13 14:45EDTYesPADUSGS327014.55 FairClearNONE
1732007-08-13 14:30EDTYesPADUSGS325014.54 FairClearNONE
1722007-08-13 14:00EDTYesPADUSGS292014.53 FairClearNONE
1712007-08-13 13:30EDTYesPADUSGS251014.55 FairClearNONE
1702007-08-13 13:00EDTYesPADUSGS195014.63 FairClearNONE
1692007-08-13 12:31EDTYesPADUSGS93514.80 FairClearNONE
1682007-08-13 12:00EDTYesPADUSGS-31414.97 FairClearNONE
1672007-08-13 11:30EDTYesPADUSGS-121014.98 FairClearNONE
1662007-08-13 11:13EDTYesPADUSGS-160014.98 FairClearNONE
1652007-08-13 10:30EDTYesPADUSGS-202014.64 FairClearNONE
1642007-08-13 10:17EDTYesPADUSGS-245014.48 FairClearNONE
1632007-08-13 09:45EDTYesPADUSGS-339014.16 FairClearNONE
1622007-08-13 09:33EDTYesPADUSGS-331014.09 FairClearNONE
1612007-08-13 09:20EDTYesPADUSGS-342014.06 FairClearNONE
1602007-08-13 09:01EDTYesPADUSGS-329014.01 FairClearNONE
1592007-08-13 08:45EDTYesPADUSGS-306014.00 FairClearNONE
1582007-08-13 08:30EDTYesPADUSGS-300014.00 FairClearNONE
1752007-08-13 -- ----YesPADUSGS321014.54 FairClearNONE
1572007-05-18 14:59EDTYesPADUSGS301014.44 FairClearNONE
1562007-05-18 14:19EDTYesPADUSGS293014.50 FairClearNONE
1552007-05-18 14:00EDTYesPADUSGS279014.51 FairClearNONE
1542007-05-18 13:44EDTYesPADUSGS234014.54 FairClearNONE
1532007-05-18 13:28EDTYesPADUSGS222014.56 FairClearNONE
1522007-05-18 13:15EDTYesPADUSGS187014.61 FairClearNONE
1512007-05-18 12:51EDTYesPADUSGS104014.68 FairClearNONE
1502007-05-18 11:05EDTYesPADUSGS-3120014.15 FairClearNONE
1492007-05-18 10:44EDTYesPADUSGS-333014.03 FairClearNONE
1482007-05-18 10:27EDTYesPADUSGS-342013.99 FairClearNONE
1472007-05-18 10:14EDTYesPADUSGS-317013.95 FairClearNONE
1462007-05-18 09:59EDTYesPADUSGS-313013.91 FairClearNONE
1452007-05-18 09:43EDTYesPADUSGS-292013.91 FairClearNONE
1442007-05-18 09:27EDTYesPADUSGS-276013.89 FairClearNONE
1432007-03-27 16:27EDTYesJWEUSGS-204013.21 FairClearNONE
1422007-03-27 16:13EDTYesJWEUSGS-209013.17 FairClearNONE
1412007-03-27 15:58EDTYesJWEUSGS-188013.15 FairClearNONE
1402007-03-27 15:42EDTYesJWEUSGS-156013.08 FairClearNONE
1392007-03-27 15:28EDTYesJWEUSGS-108013.01 FairClearNONE
1382007-03-27 15:01EDTYesJWEUSGS26412.87 FairClearNONE
1372007-03-27 13:28EDTYesJWEUSGS198013.12 FairClearNONE
1362007-03-27 11:58EDTYesJWEUSGS263013.66 FairClearNONE
1352007-03-27 11:43EDTYesJWEUSGS282013.76 FairClearNONE
1342007-03-27 10:26EDTYesJWEUSGS349014.23 FairClearNONE
1332007-03-27 09:37EDTYesJWEUSGS384014.38 FairClearNONE
1322007-03-27 09:28EDTYesJWEUSGS355014.40 FairClearNONE
1312007-03-27 09:22EDTYesJWEUSGS346014.40 FairClearNONE
1302006-12-12 08:51ESTYesPADUSGS310014.12 FairClearNONE
1292006-10-04 12:42EDTYesPADUSGS379014.67 FairClearNONE
1282006-10-04 12:26EDTYesPADUSGS355014.71 FairClearNONE
1272006-10-04 11:58EDTYesPADUSGS379014.76 FairClearNONE
1262006-10-04 11:42EDTYesPADUSGS347014.78 FairClearNONE
1252006-10-04 11:27EDTYesPADUSGS339014.80 FairClearNONE
1242006-10-04 11:17EDTYesPADUSGS337014.82 FairClearNONE
1232006-10-04 10:55EDTYesPADUSGS309014.82 FairClearNONE
1222006-10-04 10:47EDTYesPADUSGS281014.84 FairClearNONE
1212006-08-01 13:44EDTYesPADUSGS-250013.06 FairClearNONE
1202006-08-01 13:24EDTYesPADUSGS-285012.92 FairClearNONE
1192006-08-01 13:16EDTYesPADUSGS-291012.89 FairClearNONE
1182006-08-01 13:04EDTYesPADUSGS-278012.83 FairClearNONE
1172006-08-01 12:59EDTYesPADUSGS-282012.80 FairClearNONE
1162006-08-01 12:38EDTYesPADUSGS-266012.78 FairClearNONE
1152006-08-01 12:29EDTYesPADUSGS-263012.78 FairClearNONE
1142006-08-01 12:13EDTYesPADUSGS-248012.77 FairClearNONE
1132006-08-01 11:55EDTYesPADUSGS-231012.73 FairClearNONE
1122006-08-01 11:41EDTYesPADUSGS-195012.72 FairClearNONE
1112006-08-01 11:27EDTYespadUSGS-135012.67 FairClearNONE
1102006-08-01 10:58EDTYesPADUSGS-20612.56 FairClearNONE
1092006-08-01 10:44EDTYesPADUSGS35512.57 FairClearNONE
1082006-08-01 10:18EDTYesPADUSGS84012.64 FairClearNONE
1072006-08-01 10:03EDTYesPADUSGS104012.68 FairClearNONE
1062006-08-01 09:58EDTYesPADUSGS121012.74 FairClearNONE
1052006-08-01 09:47EDTYesPADUSGS124012.78 FairClearNONE
1042006-08-01 09:33EDTYesPADUSGS141012.86 FairClearNONE
1032006-05-16 15:14EDTYesPADUSGS257014.33 FairClearNONE
1022006-05-16 14:57EDTYesPADUSGS241014.36 FairClearNONE
1012006-05-16 14:45EDTYesPADUSGS225014.38 FairClearNONE
1002006-05-16 14:27EDTYesPADUSGS152014.42 FairClearNONE
992006-05-16 14:17EDTYesPADUSGS102014.48 PoorClearNONE
982006-05-16 13:47EDTYesPADUSGS14914.50 FairClearNONE
972006-05-16 13:30EDTYesPADUSGS-37114.44 FairClearNONE
962006-05-16 12:24EDTYesPADUSGS-158013.94 FairClearNONE
952006-05-16 11:56EDTYesPADUSGS-297013.58 FairClearNONE
942006-05-16 11:45EDTYesPADUSGS-314013.50 FairClearNONE
932006-05-16 11:34EDTYesPADUSGS-328013.50 FairClearNONE
922006-05-16 11:28EDTYesPADUSGS-325013.52 FairClearNONE
912006-05-16 11:06EDTYesPADUSGS-321013.42 FairClearNONE
902006-05-16 10:58EDTYesPADUSGS-310013.44 FairClearNONE
892005-06-22 14:26EDTYesPADUSGS338014.45 FairClearNONE
882005-06-22 14:13EDTYesPADUSGS340014.46 FairClearNONE
872005-06-22 14:02EDTYesPADUSGS341014.51 FairClearNONE
862005-06-22 13:45EDTYesPADUSGS324014.52 FairClearNONE
852005-06-22 13:30EDTYesPADUSGS313014.54 FairClearNONE
842004-05-19 13:36EDTYesPADUSGS279013.87 FairClearNONE
832004-05-19 13:24EDTYesPADUSGS279013.88 FairClearNONE
822004-05-19 13:19EDTYesPADUSGS278013.88 FairClearNONE
812003-04-23 12:48EDTYesPAD/JEAUSGS637017.55 FairClearNONE
802003-04-23 12:33EDTYesPAD/JEAUSGS642017.55 FairClearNONE
792003-04-23 12:29EDTYesPAD/JEAUSGS629017.55 FairClearNONE
782003-04-23 12:23EDTYesPAD/JEAUSGS638017.54 FairClearNONE
772003-04-23 12:09EDTYesPAD/JEAUSGS650017.54 FairClearNONE
762003-04-23 12:04EDTYesPAD/JEAUSGS646017.54 FairClearNONE
752003-03-18 14:13ESTYesPAD/ISRUSGS462015.89 FairClearNONE
742003-03-18 14:08ESTYesPAD/ISRUSGS476015.89 FairClearNONE
732003-03-18 13:58ESTYesPAD/ISRUSGS460015.91 FairClearNONE
722003-03-18 13:50ESTYesPAD/ISRUSGS464015.93 FairClearNONE
712003-03-18 13:31ESTYesPAD/ISRUSGS458015.95 FairClearNONE
702003-03-18 13:28ESTYesPAD/ISRUSGS453015.97 FairClearNONE
692003-03-18 13:26ESTYesPAD/ISRUSGS460015.97 FairClearNONE
682003-03-18 13:24ESTYesPAD/ISRUSGS450015.98 FairClearNONE
672003-03-12 10:03ESTYesJWE/JEAUSGS394014.82 FairClearNONE
662003-03-12 10:02ESTYesJWE/JEAUSGS379014.83 FairClearNONE
652003-03-12 10:00ESTYesJWE/JEAUSGS371014.83 FairClearNONE
642003-03-12 09:58ESTYesJWE/JEAUSGS383014.83 FairClearNONE
632003-03-12 09:48ESTYesJWE/JEAUSGS381014.84 FairClearNONE
622003-03-12 09:46ESTYesJWE/JEAUSGS369014.85 FairClearNONE
612003-03-12 09:45ESTYesJWE/JEAUSGS374014.85 FairClearNONE
602003-03-12 09:43ESTYesJWE/JEAUSGS387014.85 FairClearNONE
592003-03-12 09:34ESTYesJWE/JEAUSGS381014.87 FairClearNONE
582003-03-12 09:32ESTYesJWE/JEAUSGS383014.87 FairClearNONE
572003-03-12 09:30ESTYesJWE/JEAUSGS386014.87 FairClearNONE
562003-03-12 09:28ESTYesJWEUSGS364014.87 FairClearNONE
552003-03-12 09:19ESTYesJWE/JEAUSGS362014.89 FairClearNONE
542003-03-12 09:17ESTYesJWE/JEAUSGS370014.90 FairClearNONE
532003-03-12 09:15ESTYesJWE/JEAUSGS367014.90 FairClearNONE
522003-03-12 09:13ESTYesJWE/JEAUSGS378014.91 FairClearNONE
512003-03-12 09:04ESTYesJWE/JEAUSGS373014.92 FairClearNONE
502003-03-12 09:01ESTYesJWE/JEAUSGS369014.92 FairClearNONE
492003-03-12 08:59ESTYesJWE/JEAUSGS379014.92 FairClearNONE
482003-03-12 08:56ESTYesJWE/JEAUSGS367014.92 FairClearNONE
472003-03-12 08:39ESTYesJWE/JEAUSGS351014.94 FairClearNONE
462003-03-12 08:36ESTYesJWE/JEAUSGS355014.95 FairClearNONE
452003-03-12 08:32ESTYesJWE/JEAUSGS348014.95 FairClearNONE
442003-03-12 08:27ESTYesJWE/JEAUSGS351014.97 FairClearNONE
432001-09-26 16:16EDTYesPADUSGS-297013.59 FairClearNONE
422001-09-26 16:13EDTYesPADUSGS-284013.59 FairClearNONE
412001-09-26 15:59EDTYesPADUSGS-279013.51 FairClearNONE
402001-09-26 15:57EDTYesPADUSGS-281013.51 FairClearNONE
392001-09-26 15:45EDTYesPADUSGS-264013.47 FairClearNONE
382001-09-26 15:42EDTYesPADUSGS-255013.47 FairClearNONE
372001-09-26 15:30EDTYesPADUSGS-258013.43 FairClearNONE
362001-09-26 15:27EDTYesPADUSGS-240013.43 FairClearNONE
352001-09-26 15:14EDTYesPADUSGS-242013.40 FairClearNONE
342001-09-26 15:12EDTYesPADUSGS-240013.39 FairClearNONE
332001-09-26 15:02EDTYesPADUSGS-225013.37 FairClearNONE
322001-09-26 14:59EDTYesPADUSGS-224013.37 FairClearNONE
312001-09-26 14:46EDTYesPADUSGS-195013.32 FairClearNONE
302001-09-26 14:32EDTYesPADUSGS-153013.27 FairClearNONE
292001-09-26 14:29EDTYesPADUSGS-132013.25 FairClearNONE
282001-09-26 14:26EDTYesPADUSGS-123013.23 FairClearNONE
272001-09-26 14:24EDTYesPADUSGS-109013.21 FairClearNONE
262001-09-26 14:00EDTYesPADUSGS56613.01 FairClearNONE
252001-09-26 13:57EDTYesPADUSGS50313.01 FairClearNONE
242001-09-26 13:46EDTYesPADUSGS69613.02 FairClearNONE
232001-09-26 13:44EDTYesPADUSGS89813.02 FairClearNONE
222001-09-26 13:40EDTYesPADUSGS85213.03 FairClearNONE
212001-09-26 13:37EDTYesPADUSGS93613.04 FairClearNONE
202001-09-26 13:07EDTYesPADUSGS123013.16 FairClearNONE
182001-09-26 13:01EDTYesPADUSGS126013.19 FairClearNONE
162001-09-26 12:44EDTYesPADUSGS129013.26 FairClearNONE
152001-09-26 12:41EDTYesPADUSGS138013.27 FairClearNONE
142001-09-26 12:39EDTYesPADUSGS144013.29 FairClearNONE
132001-05-03 12:00EDTYesPAD/BHSUSGS230013.78 FairClearNONE
122001-05-03 11:58EDTYesPAD/BHSUSGS197013.80 PoorClearNONE
112001-05-03 11:55EDTYesPAD/BHSUSGS272013.82 FairClearNONE
102001-05-03 11:39EDTYesPAD/BHSUSGS274013.85 FairClearNONE
92001-05-03 11:35EDTYesPAD/BHSUSGS264013.86 FairClearNONE
82001-05-03 11:32EDTYesPAD/BHSUSGS275013.87 FairClearNONE
72001-05-03 11:30EDTYesPAD/BHSUSGS282013.90 FairClearNONE
62001-05-03 11:00EDTYesPAD/BHSUSGS304014.02 FairClearNONE
52001-05-03 10:58EDTYesPAD/BHSUSGS295014.02 FairClearNONE
42001-05-02 14:48EDTYesPAD/BHSUSGS-116012.67 FairClearNONE
32001-05-02 14:41EDTYes.71USGS-53312.63 FairClearNONE
22001-05-02 14:39EDTYesPAD/BHSUSGS-41112.59 FairClearNONE
12001-05-02 13:11EDTYesPAD/BHSUSGS132012.72 FairClearNONE